Toledo Express Airport
KTOL : now visible

Aeroporto :











RITROVATECI SU...

 
LOGIN :

Iscrizione | Disclaimer

   EN    FR    IT 

 









Sommario :    VFR   VFR Marginale   IFR   IFR Intensivo   IFR Molto Intensivo
Visibilità : 
Base nubi : 
>= 8 km
>= 3000ft
5 / 8 km
1000 / 3000 ft
1500m / 5 km
500 / 1000 ft
800 / 1500m
200 / 500 ft
< 800m
< 200 ft
Simboli :   Temporali  Nebbia  Neve Forte  Precipitazioni Forti  Vento > 20 kt







- Altitudine del aeroporto : 683 ft
- Codice IATA : TOL


KTOL - Toledo Express

ULTIMO METAR :
  • 221952Z 33012G24KT 10SM BKN049 BKN060 07/M04 A2995 RMK AO2 SLP147 T00721044

METARs OBSOLETI :
  • 221852Z 32015G23KT 10SM SCT055 OVC070 07/M04 A2994 RMK AO2 SLP143 T00721044
  • 221752Z 32014G21KT 10SM FEW044 OVC060 07/M04 A2994 RMK AO2 SLP142 T00671044 10072 20022 53010

TAF KTOL
Valido dal 22 a 18 ore il 23 a 18 ore UTC


221726Z 2218/2318 32015G25KT P6SM BKN040
FM230200 32012KT P6SM SKC
FIR KZOB / America del Nord



MetMap, La meteo Aeronautica in un colpo d'occhio ! - Copyright ORBIFLY Dicembre 2007 - Disclaimer

ORBIFLY MET'MAP TEAM :

Programmazione e sviluppo : Alexandra Zaïnal
Concezione e sviluppo : Baudouin d'Aumeries
Co-Programmazione e sviluppo : Marc-Olivier Méhu
Supporto tecnico e logistico : Manuel Goepfert
Aiuto per la traduzione : Arnaldo La Scala

Contatto : metmap@orbifly.com




FONTI E CREDITI :

   NOAA       Earth
Advisory